sensor_id;sensor_type;location;lat;lon;timestamp;P1;P2;P0
68341;PMS7003;55668;52.310;21.066;2023-06-04T00:05:55;9;9;
68341;PMS7003;55668;52.310;21.066;2023-06-04T00:23:54;9;9;
68341;PMS7003;55668;52.310;21.066;2023-06-04T00:37:10;10;10;
68341;PMS7003;55668;52.310;21.066;2023-06-04T00:54:10;9;9;
68341;PMS7003;55668;52.310;21.066;2023-06-04T01:07:15;10;10;
68341;PMS7003;55668;52.310;21.066;2023-06-04T01:23:54;9;9;
68341;PMS7003;55668;52.310;21.066;2023-06-04T01:54:45;12;12;
68341;PMS7003;55668;52.310;21.066;2023-06-04T02:09:12;10;10;
68341;PMS7003;55668;52.310;21.066;2023-06-04T02:39:43;10;10;
68341;PMS7003;55668;52.310;21.066;2023-06-04T03:10:00;13;13;
68341;PMS7003;55668;52.310;21.066;2023-06-04T03:56:49;14;14;
68341;PMS7003;55668;52.310;21.066;2023-06-04T04:11:45;13;13;
68341;PMS7003;55668;52.310;21.066;2023-06-04T04:26:51;12;10;
68341;PMS7003;55668;52.310;21.066;2023-06-04T04:44:26;12;12;
68341;PMS7003;55668;52.310;21.066;2023-06-04T04:57:39;12;12;
68341;PMS7003;55668;52.310;21.066;2023-06-04T05:14:36;10;10;
68341;PMS7003;55668;52.310;21.066;2023-06-04T05:28:22;9;9;
68341;PMS7003;55668;52.310;21.066;2023-06-04T05:43:45;5;5;
68341;PMS7003;55668;52.310;21.066;2023-06-04T05:59:29;7;7;
68341;PMS7003;55668;52.310;21.066;2023-06-04T06:16:24;6;6;
68341;PMS7003;55668;52.310;21.066;2023-06-04T06:29:41;5;5;
68341;PMS7003;55668;52.310;21.066;2023-06-04T06:46:50;5;5;
68341;PMS7003;55668;52.310;21.066;2023-06-04T07:07:13;1;1;
68341;PMS7003;55668;52.310;21.066;2023-06-04T07:16:15;3;3;
68341;PMS7003;55668;52.310;21.066;2023-06-04T07:38:15;5;5;
68341;PMS7003;55668;52.310;21.066;2023-06-04T07:46:27;5;5;
68341;PMS7003;55668;52.310;21.066;2023-06-04T08:07:27;10;10;
68341;PMS7003;55668;52.310;21.066;2023-06-04T08:24:15;1;1;
68341;PMS7003;55668;52.310;21.066;2023-06-04T08:36:18;1;1;
68341;PMS7003;55668;52.310;21.066;2023-06-04T08:48:23;1;1;
68341;PMS7003;55668;52.310;21.066;2023-06-04T09:09:50;1;1;
68341;PMS7003;55668;52.310;21.066;2023-06-04T09:19:00;1;1;
68341;PMS7003;55668;52.310;21.066;2023-06-04T09:51:24;0;0;
68341;PMS7003;55668;52.310;21.066;2023-06-04T10:07:36;1;1;
68341;PMS7003;55668;52.310;21.066;2023-06-04T10:23:49;0;0;
68341;PMS7003;55668;52.310;21.066;2023-06-04T10:35:54;0;0;
68341;PMS7003;55668;52.310;21.066;2023-06-04T10:53:36;0;0;
68341;PMS7003;55668;52.310;21.066;2023-06-04T11:23:27;0;0;
68341;PMS7003;55668;52.310;21.066;2023-06-04T11:39:22;0;0;
68341;PMS7003;55668;52.310;21.066;2023-06-04T12:07:45;0;0;
68341;PMS7003;55668;52.310;21.066;2023-06-04T12:22:47;0;0;
68341;PMS7003;55668;52.310;21.066;2023-06-04T13:13:14;1;1;
68341;PMS7003;55668;52.310;21.066;2023-06-04T13:24:05;1;1;
68341;PMS7003;55668;52.310;21.066;2023-06-04T13:44:28;0;0;
68341;PMS7003;55668;52.310;21.066;2023-06-04T13:56:48;0;0;
68341;PMS7003;55668;52.310;21.066;2023-06-04T14:25:56;0;0;
68341;PMS7003;55668;52.310;21.066;2023-06-04T14:41:57;0;0;
68341;PMS7003;55668;52.310;21.066;2023-06-04T15:11:56;0;0;
68341;PMS7003;55668;52.310;21.066;2023-06-04T16:13:26;1;1;
68341;PMS7003;55668;52.310;21.066;2023-06-04T16:59:44;1;1;
68341;PMS7003;55668;52.310;21.066;2023-06-04T17:30:32;1;1;
68341;PMS7003;55668;52.310;21.066;2023-06-04T17:45:32;1;1;
68341;PMS7003;55668;52.310;21.066;2023-06-04T18:20:45;8;8;
68341;PMS7003;55668;52.310;21.066;2023-06-04T18:35:32;7;5;
68341;PMS7003;55668;52.310;21.066;2023-06-04T18:52:41;6;6;
68341;PMS7003;55668;52.310;21.066;2023-06-04T19:17:45;4;4;
68341;PMS7003;55668;52.310;21.066;2023-06-04T19:33:57;6;4;
68341;PMS7003;55668;52.310;21.066;2023-06-04T19:48:11;3;3;
68341;PMS7003;55668;52.310;21.066;2023-06-04T20:03:56;4;4;
68341;PMS7003;55668;52.310;21.066;2023-06-04T20:19:16;5;5;
68341;PMS7003;55668;52.310;21.066;2023-06-04T20:35:54;3;3;
68341;PMS7003;55668;52.310;21.066;2023-06-04T20:50:02;4;4;
68341;PMS7003;55668;52.310;21.066;2023-06-04T21:35:32;5;5;
68341;PMS7003;55668;52.310;21.066;2023-06-04T21:51:28;9;9;
68341;PMS7003;55668;52.310;21.066;2023-06-04T22:07:42;6;6;
68341;PMS7003;55668;52.310;21.066;2023-06-04T22:23:05;6;6;
68341;PMS7003;55668;52.310;21.066;2023-06-04T22:54:23;11;9;
68341;PMS7003;55668;52.310;21.066;2023-06-04T23:09:05;9;9;
68341;PMS7003;55668;52.310;21.066;2023-06-04T23:28:05;9;9;
68341;PMS7003;55668;52.310;21.066;2023-06-04T23:40:21;8;8;
68341;PMS7003;55668;52.310;21.066;2023-06-04T23:53:45;8;8;
